Terminal Aerodrome Forecast
Issued by NWS

Home | Current Version | Previous Version | Text Only | Print | Product List | Glossary On
Versions: 1 2 3 4 5 6 7 8 9 10 11 12 13
000
FTUS43 KFGF 280520
TAFTVF
TAF
KTVF 280520Z 2806/2906 14010KT P6SM BKN080
      TEMPO 2807/2811 4SM -TSRA OVC030CB
     FM281100 14008KT P6SM -SHRA OVC030
     FM281500 17008KT P6SM OVC015
     FM282000 30010KT P6SM BKN035=

USA.gov is the U.S. government's official web portal to all federal, state and local government web resources and services.